sensor_id;sensor_type;location;lat;lon;timestamp;temperature;humidity
9167;DHT22;4618;48.818;9.088;2023-06-24T00:01:00;14.70;1.00
9167;DHT22;4618;48.818;9.088;2023-06-24T00:03:26;14.60;1.00
9167;DHT22;4618;48.818;9.088;2023-06-24T00:05:52;14.60;81.00
9167;DHT22;4618;48.818;9.088;2023-06-24T00:08:19;14.50;99.90
9167;DHT22;4618;48.818;9.088;2023-06-24T00:10:46;14.40;1.00
9167;DHT22;4618;48.818;9.088;2023-06-24T00:13:13;14.30;1.00
9167;DHT22;4618;48.818;9.088;2023-06-24T00:15:39;14.30;90.10
9167;DHT22;4618;48.818;9.088;2023-06-24T00:18:11;14.20;99.90
9167;DHT22;4618;48.818;9.088;2023-06-24T00:20:37;14.30;1.00
9167;DHT22;4618;48.818;9.088;2023-06-24T00:23:03;14.20;1.00
9167;DHT22;4618;48.818;9.088;2023-06-24T00:25:29;14.20;9.60
9167;DHT22;4618;48.818;9.088;2023-06-24T00:27:55;14.30;1.00
9167;DHT22;4618;48.818;9.088;2023-06-24T00:30:21;14.40;85.90
9167;DHT22;4618;48.818;9.088;2023-06-24T00:32:47;14.30;13.70
9167;DHT22;4618;48.818;9.088;2023-06-24T00:35:12;14.20;99.90
9167;DHT22;4618;48.818;9.088;2023-06-24T00:37:38;14.10;99.90
9167;DHT22;4618;48.818;9.088;2023-06-24T00:40:05;14.20;51.20
9167;DHT22;4618;48.818;9.088;2023-06-24T00:42:31;14.30;1.00
9167;DHT22;4618;48.818;9.088;2023-06-24T00:44:57;14.30;1.00
9167;DHT22;4618;48.818;9.088;2023-06-24T00:47:23;14.20;1.00
9167;DHT22;4618;48.818;9.088;2023-06-24T00:49:49;14.10;1.00
9167;DHT22;4618;48.818;9.088;2023-06-24T00:52:14;14.00;99.90
9167;DHT22;4618;48.818;9.088;2023-06-24T00:54:44;13.80;1.00
9167;DHT22;4618;48.818;9.088;2023-06-24T00:57:10;13.60;99.90
9167;DHT22;4618;48.818;9.088;2023-06-24T00:59:37;13.60;99.90
9167;DHT22;4618;48.818;9.088;2023-06-24T01:02:03;13.50;1.00
9167;DHT22;4618;48.818;9.088;2023-06-24T01:04:30;13.50;1.00
9167;DHT22;4618;48.818;9.088;2023-06-24T01:06:57;13.50;1.00
9167;DHT22;4618;48.818;9.088;2023-06-24T01:09:23;13.60;1.00
9167;DHT22;4618;48.818;9.088;2023-06-24T01:11:49;13.60;1.00
9167;DHT22;4618;48.818;9.088;2023-06-24T01:14:15;13.50;1.00
9167;DHT22;4618;48.818;9.088;2023-06-24T01:17:05;13.50;1.00
9167;DHT22;4618;48.818;9.088;2023-06-24T01:22:44;13.50;62.40
9167;DHT22;4618;48.818;9.088;2023-06-24T01:31:18;13.50;92.10
9167;DHT22;4618;48.818;9.088;2023-06-24T01:36:29;13.60;1.00
9167;DHT22;4618;48.818;9.088;2023-06-24T01:39:09;13.60;99.90
9167;DHT22;4618;48.818;9.088;2023-06-24T01:41:41;13.70;1.00
9167;DHT22;4618;48.818;9.088;2023-06-24T01:44:09;13.70;15.80
9167;DHT22;4618;48.818;9.088;2023-06-24T01:46:36;13.60;1.00
9167;DHT22;4618;48.818;9.088;2023-06-24T01:49:04;13.60;99.90
9167;DHT22;4618;48.818;9.088;2023-06-24T01:51:34;13.50;1.00
9167;DHT22;4618;48.818;9.088;2023-06-24T01:54:03;13.40;1.00
9167;DHT22;4618;48.818;9.088;2023-06-24T01:56:30;13.40;2.70
9167;DHT22;4618;48.818;9.088;2023-06-24T01:59:00;13.40;99.90
9167;DHT22;4618;48.818;9.088;2023-06-24T02:01:26;13.30;99.90
9167;DHT22;4618;48.818;9.088;2023-06-24T02:03:54;13.30;99.90
9167;DHT22;4618;48.818;9.088;2023-06-24T02:06:22;13.30;99.90
9167;DHT22;4618;48.818;9.088;2023-06-24T02:08:49;13.20;99.90
9167;DHT22;4618;48.818;9.088;2023-06-24T02:11:16;13.20;1.00
9167;DHT22;4618;48.818;9.088;2023-06-24T02:13:43;13.20;1.00
9167;DHT22;4618;48.818;9.088;2023-06-24T02:16:10;13.20;1.00
9167;DHT22;4618;48.818;9.088;2023-06-24T02:18:38;13.20;99.90
9167;DHT22;4618;48.818;9.088;2023-06-24T02:21:08;13.20;1.00
9167;DHT22;4618;48.818;9.088;2023-06-24T02:23:38;13.20;99.90
9167;DHT22;4618;48.818;9.088;2023-06-24T02:26:05;13.20;99.90
9167;DHT22;4618;48.818;9.088;2023-06-24T02:28:32;13.20;99.90
9167;DHT22;4618;48.818;9.088;2023-06-24T02:30:59;13.20;27.00
9167;DHT22;4618;48.818;9.088;2023-06-24T02:33:25;13.20;1.00
9167;DHT22;4618;48.818;9.088;2023-06-24T02:35:52;13.20;44.50
9167;DHT22;4618;48.818;9.088;2023-06-24T02:38:18;13.00;99.90
9167;DHT22;4618;48.818;9.088;2023-06-24T02:40:45;12.90;1.00
9167;DHT22;4618;48.818;9.088;2023-06-24T02:43:10;12.80;1.00
9167;DHT22;4618;48.818;9.088;2023-06-24T02:45:37;12.70;1.00
9167;DHT22;4618;48.818;9.088;2023-06-24T02:48:04;12.60;99.90
9167;DHT22;4618;48.818;9.088;2023-06-24T02:50:30;12.50;99.90
9167;DHT22;4618;48.818;9.088;2023-06-24T02:52:56;12.40;1.00
9167;DHT22;4618;48.818;9.088;2023-06-24T02:55:22;12.40;99.90
9167;DHT22;4618;48.818;9.088;2023-06-24T02:57:48;12.30;1.00
9167;DHT22;4618;48.818;9.088;2023-06-24T03:00:16;12.20;1.00
9167;DHT22;4618;48.818;9.088;2023-06-24T03:02:43;12.20;1.00
9167;DHT22;4618;48.818;9.088;2023-06-24T03:05:10;12.20;1.00
9167;DHT22;4618;48.818;9.088;2023-06-24T03:07:37;12.20;7.90
9167;DHT22;4618;48.818;9.088;2023-06-24T03:10:03;12.30;1.00
9167;DHT22;4618;48.818;9.088;2023-06-24T03:12:31;12.30;29.30
9167;DHT22;4618;48.818;9.088;2023-06-24T03:14:56;12.30;12.20
9167;DHT22;4618;48.818;9.088;2023-06-24T03:17:22;12.30;1.00
9167;DHT22;4618;48.818;9.088;2023-06-24T03:19:48;12.30;1.00
9167;DHT22;4618;48.818;9.088;2023-06-24T03:22:14;12.30;1.00
9167;DHT22;4618;48.818;9.088;2023-06-24T03:24:39;12.20;1.00
9167;DHT22;4618;48.818;9.088;2023-06-24T03:27:05;12.30;1.00
9167;DHT22;4618;48.818;9.088;2023-06-24T03:29:31;12.30;1.00
9167;DHT22;4618;48.818;9.088;2023-06-24T03:31:56;12.30;1.00
9167;DHT22;4618;48.818;9.088;2023-06-24T03:34:22;12.50;99.90
9167;DHT22;4618;48.818;9.088;2023-06-24T03:36:48;12.60;1.00
9167;DHT22;4618;48.818;9.088;2023-06-24T03:39:13;12.60;1.00
9167;DHT22;4618;48.818;9.088;2023-06-24T03:41:39;12.60;1.00
9167;DHT22;4618;48.818;9.088;2023-06-24T03:44:04;12.50;44.20
9167;DHT22;4618;48.818;9.088;2023-06-24T03:46:30;12.50;99.90
9167;DHT22;4618;48.818;9.088;2023-06-24T03:48:58;12.60;28.30
9167;DHT22;4618;48.818;9.088;2023-06-24T03:51:25;12.50;87.20
9167;DHT22;4618;48.818;9.088;2023-06-24T03:53:51;12.60;99.90
9167;DHT22;4618;48.818;9.088;2023-06-24T03:56:17;12.60;99.90
9167;DHT22;4618;48.818;9.088;2023-06-24T03:58:42;12.60;99.90
9167;DHT22;4618;48.818;9.088;2023-06-24T04:01:08;12.70;99.70
9167;DHT22;4618;48.818;9.088;2023-06-24T04:03:34;12.80;1.00
9167;DHT22;4618;48.818;9.088;2023-06-24T04:06:00;12.80;1.00
9167;DHT22;4618;48.818;9.088;2023-06-24T04:08:27;12.90;1.00
9167;DHT22;4618;48.818;9.088;2023-06-24T04:10:59;13.00;1.00
9167;DHT22;4618;48.818;9.088;2023-06-24T04:13:25;13.00;99.90
9167;DHT22;4618;48.818;9.088;2023-06-24T04:15:51;13.10;99.90
9167;DHT22;4618;48.818;9.088;2023-06-24T04:18:18;13.20;99.90
9167;DHT22;4618;48.818;9.088;2023-06-24T04:20:44;13.30;99.90
9167;DHT22;4618;48.818;9.088;2023-06-24T04:23:09;13.40;99.90
9167;DHT22;4618;48.818;9.088;2023-06-24T04:25:36;13.50;27.80
9167;DHT22;4618;48.818;9.088;2023-06-24T04:28:02;13.60;1.00
9167;DHT22;4618;48.818;9.088;2023-06-24T04:30:30;13.60;1.00
9167;DHT22;4618;48.818;9.088;2023-06-24T04:32:55;13.70;99.90
9167;DHT22;4618;48.818;9.088;2023-06-24T04:35:21;13.70;99.90
9167;DHT22;4618;48.818;9.088;2023-06-24T04:37:46;13.80;99.90
9167;DHT22;4618;48.818;9.088;2023-06-24T04:40:14;13.90;99.90
9167;DHT22;4618;48.818;9.088;2023-06-24T04:42:40;14.00;99.90
9167;DHT22;4618;48.818;9.088;2023-06-24T04:45:05;14.10;52.80
9167;DHT22;4618;48.818;9.088;2023-06-24T04:47:31;14.10;45.20
9167;DHT22;4618;48.818;9.088;2023-06-24T04:49:57;14.30;58.30
9167;DHT22;4618;48.818;9.088;2023-06-24T04:52:25;14.30;18.40
9167;DHT22;4618;48.818;9.088;2023-06-24T04:54:51;14.40;98.10
9167;DHT22;4618;48.818;9.088;2023-06-24T04:57:27;14.50;99.00
9167;DHT22;4618;48.818;9.088;2023-06-24T04:59:53;14.60;61.00
9167;DHT22;4618;48.818;9.088;2023-06-24T05:02:18;14.70;99.90
9167;DHT22;4618;48.818;9.088;2023-06-24T05:04:44;14.80;99.90
9167;DHT22;4618;48.818;9.088;2023-06-24T05:07:10;14.90;2.70
9167;DHT22;4618;48.818;9.088;2023-06-24T05:09:35;15.00;1.00
9167;DHT22;4618;48.818;9.088;2023-06-24T05:12:04;15.20;1.00
9167;DHT22;4618;48.818;9.088;2023-06-24T05:14:30;15.30;1.00
9167;DHT22;4618;48.818;9.088;2023-06-24T05:16:55;15.50;99.90
9167;DHT22;4618;48.818;9.088;2023-06-24T05:19:21;15.70;99.90
9167;DHT22;4618;48.818;9.088;2023-06-24T05:21:46;15.80;99.90
9167;DHT22;4618;48.818;9.088;2023-06-24T05:24:12;16.00;99.90
9167;DHT22;4618;48.818;9.088;2023-06-24T05:26:37;16.00;1.00
9167;DHT22;4618;48.818;9.088;2023-06-24T05:29:03;16.20;1.00
9167;DHT22;4618;48.818;9.088;2023-06-24T05:31:29;16.30;1.00
9167;DHT22;4618;48.818;9.088;2023-06-24T05:33:54;16.50;99.90
9167;DHT22;4618;48.818;9.088;2023-06-24T05:36:20;16.70;99.90
9167;DHT22;4618;48.818;9.088;2023-06-24T05:38:45;16.70;99.90
9167;DHT22;4618;48.818;9.088;2023-06-24T05:41:11;16.90;99.90
9167;DHT22;4618;48.818;9.088;2023-06-24T05:43:36;17.10;27.70
9167;DHT22;4618;48.818;9.088;2023-06-24T05:46:02;17.20;1.00
9167;DHT22;4618;48.818;9.088;2023-06-24T05:48:28;17.30;1.00
9167;DHT22;4618;48.818;9.088;2023-06-24T05:50:54;17.50;99.90
9167;DHT22;4618;48.818;9.088;2023-06-24T05:53:19;17.70;1.00
9167;DHT22;4618;48.818;9.088;2023-06-24T05:55:45;17.80;1.00
9167;DHT22;4618;48.818;9.088;2023-06-24T05:58:10;18.00;99.90
9167;DHT22;4618;48.818;9.088;2023-06-24T06:00:36;18.10;99.90
9167;DHT22;4618;48.818;9.088;2023-06-24T06:03:02;18.20;1.00
9167;DHT22;4618;48.818;9.088;2023-06-24T06:05:27;18.40;1.00
9167;DHT22;4618;48.818;9.088;2023-06-24T06:07:53;18.40;99.90
9167;DHT22;4618;48.818;9.088;2023-06-24T06:10:19;18.50;99.90
9167;DHT22;4618;48.818;9.088;2023-06-24T06:12:45;18.70;99.90
9167;DHT22;4618;48.818;9.088;2023-06-24T06:15:11;18.80;99.90
9167;DHT22;4618;48.818;9.088;2023-06-24T06:17:37;18.80;1.00
9167;DHT22;4618;48.818;9.088;2023-06-24T06:20:03;19.00;1.00
9167;DHT22;4618;48.818;9.088;2023-06-24T06:22:29;19.00;1.00
9167;DHT22;4618;48.818;9.088;2023-06-24T06:24:54;19.10;1.00
9167;DHT22;4618;48.818;9.088;2023-06-24T06:27:20;19.20;1.00
9167;DHT22;4618;48.818;9.088;2023-06-24T06:29:45;19.30;99.90
9167;DHT22;4618;48.818;9.088;2023-06-24T06:32:11;19.40;99.90
9167;DHT22;4618;48.818;9.088;2023-06-24T06:34:36;19.60;99.90
9167;DHT22;4618;48.818;9.088;2023-06-24T06:37:02;19.70;99.90
9167;DHT22;4618;48.818;9.088;2023-06-24T06:39:28;19.90;99.90
9167;DHT22;4618;48.818;9.088;2023-06-24T06:41:53;20.00;99.90
9167;DHT22;4618;48.818;9.088;2023-06-24T06:44:19;20.10;99.90
9167;DHT22;4618;48.818;9.088;2023-06-24T06:46:44;20.30;99.90
9167;DHT22;4618;48.818;9.088;2023-06-24T06:49:10;20.30;99.90
9167;DHT22;4618;48.818;9.088;2023-06-24T06:51:35;20.40;99.90
9167;DHT22;4618;48.818;9.088;2023-06-24T06:54:02;20.50;99.90
9167;DHT22;4618;48.818;9.088;2023-06-24T06:56:28;20.60;99.90
9167;DHT22;4618;48.818;9.088;2023-06-24T06:58:54;20.80;99.90
9167;DHT22;4618;48.818;9.088;2023-06-24T07:01:20;20.80;99.90
9167;DHT22;4618;48.818;9.088;2023-06-24T07:03:45;20.90;99.90
9167;DHT22;4618;48.818;9.088;2023-06-24T07:06:11;20.90;99.90
9167;DHT22;4618;48.818;9.088;2023-06-24T07:08:36;21.10;99.90
9167;DHT22;4618;48.818;9.088;2023-06-24T07:11:02;21.20;99.90
9167;DHT22;4618;48.818;9.088;2023-06-24T07:13:28;21.30;99.90
9167;DHT22;4618;48.818;9.088;2023-06-24T07:15:54;21.30;99.90
9167;DHT22;4618;48.818;9.088;2023-06-24T07:18:19;21.40;99.90
9167;DHT22;4618;48.818;9.088;2023-06-24T07:20:45;21.60;99.90
9167;DHT22;4618;48.818;9.088;2023-06-24T07:23:10;21.70;99.90
9167;DHT22;4618;48.818;9.088;2023-06-24T07:25:37;22.10;99.90
9167;DHT22;4618;48.818;9.088;2023-06-24T07:28:03;22.30;99.90
9167;DHT22;4618;48.818;9.088;2023-06-24T07:30:29;22.50;99.90
9167;DHT22;4618;48.818;9.088;2023-06-24T07:32:54;23.00;99.90
9167;DHT22;4618;48.818;9.088;2023-06-24T07:35:20;23.40;99.90
9167;DHT22;4618;48.818;9.088;2023-06-24T07:37:45;23.90;94.20
9167;DHT22;4618;48.818;9.088;2023-06-24T07:40:11;24.20;88.40
9167;DHT22;4618;48.818;9.088;2023-06-24T07:45:03;25.10;56.00
9167;DHT22;4618;48.818;9.088;2023-06-24T07:47:28;25.80;66.60
9167;DHT22;4618;48.818;9.088;2023-06-24T07:49:54;26.00;58.30
9167;DHT22;4618;48.818;9.088;2023-06-24T07:52:19;25.80;55.60
9167;DHT22;4618;48.818;9.088;2023-06-24T07:54:45;25.30;54.70
9167;DHT22;4618;48.818;9.088;2023-06-24T07:57:10;24.90;69.80
9167;DHT22;4618;48.818;9.088;2023-06-24T07:59:36;24.40;59.70
9167;DHT22;4618;48.818;9.088;2023-06-24T08:02:02;25.10;56.50
9167;DHT22;4618;48.818;9.088;2023-06-24T08:04:27;25.70;54.10
9167;DHT22;4618;48.818;9.088;2023-06-24T08:09:19;26.80;29.10
9167;DHT22;4618;48.818;9.088;2023-06-24T08:11:44;26.60;44.10
9167;DHT22;4618;48.818;9.088;2023-06-24T08:14:10;26.50;42.30
9167;DHT22;4618;48.818;9.088;2023-06-24T08:16:36;26.60;39.80
9167;DHT22;4618;48.818;9.088;2023-06-24T08:19:01;27.20;38.90
9167;DHT22;4618;48.818;9.088;2023-06-24T08:21:27;27.70;32.80
9167;DHT22;4618;48.818;9.088;2023-06-24T08:26:20;28.00;14.60
9167;DHT22;4618;48.818;9.088;2023-06-24T08:28:47;28.60;23.60
9167;DHT22;4618;48.818;9.088;2023-06-24T08:33:44;28.70;5.90
9167;DHT22;4618;48.818;9.088;2023-06-24T08:36:10;29.50;13.60
9167;DHT22;4618;48.818;9.088;2023-06-24T08:38:36;30.20;12.10
9167;DHT22;4618;48.818;9.088;2023-06-24T08:43:28;28.40;1.00
9167;DHT22;4618;48.818;9.088;2023-06-24T08:45:54;28.40;8.70
9167;DHT22;4618;48.818;9.088;2023-06-24T08:48:20;28.90;4.90
9167;DHT22;4618;48.818;9.088;2023-06-24T08:50:50;29.10;5.30
9167;DHT22;4618;48.818;9.088;2023-06-24T08:53:18;29.30;5.00
9167;DHT22;4618;48.818;9.088;2023-06-24T08:55:46;29.70;1.30
9167;DHT22;4618;48.818;9.088;2023-06-24T08:58:12;28.90;1.00
9167;DHT22;4618;48.818;9.088;2023-06-24T09:00:38;28.20;2.30
9167;DHT22;4618;48.818;9.088;2023-06-24T09:03:04;28.80;1.00
9167;DHT22;4618;48.818;9.088;2023-06-24T09:05:29;29.60;1.00
9167;DHT22;4618;48.818;9.088;2023-06-24T09:07:55;30.30;1.00
9167;DHT22;4618;48.818;9.088;2023-06-24T09:10:34;30.40;2.60
9167;DHT22;4618;48.818;9.088;2023-06-24T09:13:01;31.00;1.00
9167;DHT22;4618;48.818;9.088;2023-06-24T09:20:23;32.20;1.00
9167;DHT22;4618;48.818;9.088;2023-06-24T09:25:17;31.60;1.00
9167;DHT22;4618;48.818;9.088;2023-06-24T09:40:04;33.70;1.00
9167;DHT22;4618;48.818;9.088;2023-06-24T09:42:31;32.50;1.00
9167;DHT22;4618;48.818;9.088;2023-06-24T09:47:23;31.50;99.90
9167;DHT22;4618;48.818;9.088;2023-06-24T09:49:53;30.60;1.00
9167;DHT22;4618;48.818;9.088;2023-06-24T09:52:20;29.90;1.00
9167;DHT22;4618;48.818;9.088;2023-06-24T09:54:51;29.60;1.00
9167;DHT22;4618;48.818;9.088;2023-06-24T09:57:25;30.20;1.00
9167;DHT22;4618;48.818;9.088;2023-06-24T09:59:52;31.10;1.00
9167;DHT22;4618;48.818;9.088;2023-06-24T10:04:45;32.90;1.00
9167;DHT22;4618;48.818;9.088;2023-06-24T10:07:11;32.80;1.00
9167;DHT22;4618;48.818;9.088;2023-06-24T10:09:38;33.30;1.00
9167;DHT22;4618;48.818;9.088;2023-06-24T10:12:04;32.40;1.00
9167;DHT22;4618;48.818;9.088;2023-06-24T10:14:30;32.80;1.00
9167;DHT22;4618;48.818;9.088;2023-06-24T10:17:02;33.50;1.00
9167;DHT22;4618;48.818;9.088;2023-06-24T10:19:29;34.20;1.00
9167;DHT22;4618;48.818;9.088;2023-06-24T10:21:58;34.50;1.00
9167;DHT22;4618;48.818;9.088;2023-06-24T10:24:33;35.40;1.00
9167;DHT22;4618;48.818;9.088;2023-06-24T10:32:04;34.70;1.00
9167;DHT22;4618;48.818;9.088;2023-06-24T10:34:42;33.60;1.00
9167;DHT22;4618;48.818;9.088;2023-06-24T10:37:08;33.50;1.00
9167;DHT22;4618;48.818;9.088;2023-06-24T10:42:39;34.40;1.00
9167;DHT22;4618;48.818;9.088;2023-06-24T10:45:16;34.60;1.00
9167;DHT22;4618;48.818;9.088;2023-06-24T10:47:47;35.00;1.00
9167;DHT22;4618;48.818;9.088;2023-06-24T10:50:14;35.50;1.00
9167;DHT22;4618;48.818;9.088;2023-06-24T10:52:45;36.30;1.00
9167;DHT22;4618;48.818;9.088;2023-06-24T10:55:14;36.50;1.00
9167;DHT22;4618;48.818;9.088;2023-06-24T10:57:40;35.80;1.00
9167;DHT22;4618;48.818;9.088;2023-06-24T11:00:06;36.30;1.00
9167;DHT22;4618;48.818;9.088;2023-06-24T11:02:32;36.90;1.00
9167;DHT22;4618;48.818;9.088;2023-06-24T11:05:00;37.10;1.00
9167;DHT22;4618;48.818;9.088;2023-06-24T11:07:31;36.20;1.00
9167;DHT22;4618;48.818;9.088;2023-06-24T11:10:01;36.70;1.00
9167;DHT22;4618;48.818;9.088;2023-06-24T11:12:30;35.60;1.00
9167;DHT22;4618;48.818;9.088;2023-06-24T11:15:17;36.20;1.00
9167;DHT22;4618;48.818;9.088;2023-06-24T11:17:44;36.50;1.00
9167;DHT22;4618;48.818;9.088;2023-06-24T11:20:11;36.50;1.00
9167;DHT22;4618;48.818;9.088;2023-06-24T11:22:40;36.30;1.00
9167;DHT22;4618;48.818;9.088;2023-06-24T11:25:06;36.70;1.00
9167;DHT22;4618;48.818;9.088;2023-06-24T11:27:32;37.00;1.00
9167;DHT22;4618;48.818;9.088;2023-06-24T11:29:58;37.00;1.00
9167;DHT22;4618;48.818;9.088;2023-06-24T11:32:35;37.10;1.00
9167;DHT22;4618;48.818;9.088;2023-06-24T11:35:01;37.50;1.00
9167;DHT22;4618;48.818;9.088;2023-06-24T11:37:31;37.50;1.00
9167;DHT22;4618;48.818;9.088;2023-06-24T11:40:04;38.00;1.00
9167;DHT22;4618;48.818;9.088;2023-06-24T11:42:31;37.80;1.00
9167;DHT22;4618;48.818;9.088;2023-06-24T11:45:05;37.90;1.00
9167;DHT22;4618;48.818;9.088;2023-06-24T11:47:32;37.70;1.00
9167;DHT22;4618;48.818;9.088;2023-06-24T11:49:58;37.80;1.00
9167;DHT22;4618;48.818;9.088;2023-06-24T11:55:22;38.10;1.00
9167;DHT22;4618;48.818;9.088;2023-06-24T12:02:58;37.60;1.00
9167;DHT22;4618;48.818;9.088;2023-06-24T12:05:29;37.80;1.00
9167;DHT22;4618;48.818;9.088;2023-06-24T12:08:03;38.00;1.00
9167;DHT22;4618;48.818;9.088;2023-06-24T12:10:30;38.30;1.00
9167;DHT22;4618;48.818;9.088;2023-06-24T12:12:59;38.60;1.00
9167;DHT22;4618;48.818;9.088;2023-06-24T12:15:25;38.70;1.00
9167;DHT22;4618;48.818;9.088;2023-06-24T12:17:51;38.50;99.90
9167;DHT22;4618;48.818;9.088;2023-06-24T12:20:17;38.70;1.00
9167;DHT22;4618;48.818;9.088;2023-06-24T12:22:47;38.60;99.90
9167;DHT22;4618;48.818;9.088;2023-06-24T12:25:13;39.20;1.00
9167;DHT22;4618;48.818;9.088;2023-06-24T12:27:38;39.10;1.00
9167;DHT22;4618;48.818;9.088;2023-06-24T12:30:06;39.20;1.00
9167;DHT22;4618;48.818;9.088;2023-06-24T12:34:58;39.10;1.00
9167;DHT22;4618;48.818;9.088;2023-06-24T12:37:23;38.80;1.00
9167;DHT22;4618;48.818;9.088;2023-06-24T12:39:49;38.70;1.00
9167;DHT22;4618;48.818;9.088;2023-06-24T12:44:42;39.10;1.00
9167;DHT22;4618;48.818;9.088;2023-06-24T12:47:08;39.20;1.00
9167;DHT22;4618;48.818;9.088;2023-06-24T12:56:51;39.00;1.00
9167;DHT22;4618;48.818;9.088;2023-06-24T12:59:16;38.70;1.00
9167;DHT22;4618;48.818;9.088;2023-06-24T13:01:42;38.30;1.00
9167;DHT22;4618;48.818;9.088;2023-06-24T13:04:10;38.20;1.00
9167;DHT22;4618;48.818;9.088;2023-06-24T13:09:02;39.30;1.00
9167;DHT22;4618;48.818;9.088;2023-06-24T13:11:28;39.60;1.00
9167;DHT22;4618;48.818;9.088;2023-06-24T13:13:54;39.30;1.00
9167;DHT22;4618;48.818;9.088;2023-06-24T13:16:20;38.60;1.00
9167;DHT22;4618;48.818;9.088;2023-06-24T13:18:46;37.90;1.00
9167;DHT22;4618;48.818;9.088;2023-06-24T13:21:12;37.20;90.80
9167;DHT22;4618;48.818;9.088;2023-06-24T13:23:38;37.90;43.20
9167;DHT22;4618;48.818;9.088;2023-06-24T13:26:05;37.30;1.00
9167;DHT22;4618;48.818;9.088;2023-06-24T13:28:31;38.00;1.00
9167;DHT22;4618;48.818;9.088;2023-06-24T13:30:57;38.20;1.00
9167;DHT22;4618;48.818;9.088;2023-06-24T13:33:23;38.60;1.00
9167;DHT22;4618;48.818;9.088;2023-06-24T13:35:48;38.30;1.00
9167;DHT22;4618;48.818;9.088;2023-06-24T13:38:16;38.40;1.00
9167;DHT22;4618;48.818;9.088;2023-06-24T13:40:42;38.50;1.00
9167;DHT22;4618;48.818;9.088;2023-06-24T13:43:08;38.40;1.00
9167;DHT22;4618;48.818;9.088;2023-06-24T13:45:33;38.50;1.00
9167;DHT22;4618;48.818;9.088;2023-06-24T13:47:59;38.80;1.00
9167;DHT22;4618;48.818;9.088;2023-06-24T13:52:50;39.20;1.00
9167;DHT22;4618;48.818;9.088;2023-06-24T13:55:16;38.70;1.00
9167;DHT22;4618;48.818;9.088;2023-06-24T13:57:42;39.20;1.00
9167;DHT22;4618;48.818;9.088;2023-06-24T14:00:07;38.70;1.00
9167;DHT22;4618;48.818;9.088;2023-06-24T14:02:34;38.50;1.00
9167;DHT22;4618;48.818;9.088;2023-06-24T14:05:00;38.40;1.00
9167;DHT22;4618;48.818;9.088;2023-06-24T14:07:25;38.90;1.00
9167;DHT22;4618;48.818;9.088;2023-06-24T14:09:51;38.10;1.00
9167;DHT22;4618;48.818;9.088;2023-06-24T14:12:17;37.10;1.00
9167;DHT22;4618;48.818;9.088;2023-06-24T14:14:42;36.90;1.00
9167;DHT22;4618;48.818;9.088;2023-06-24T14:17:08;36.40;1.00
9167;DHT22;4618;48.818;9.088;2023-06-24T14:19:35;36.60;1.00
9167;DHT22;4618;48.818;9.088;2023-06-24T14:22:01;36.80;1.00
9167;DHT22;4618;48.818;9.088;2023-06-24T14:24:26;37.40;1.00
9167;DHT22;4618;48.818;9.088;2023-06-24T14:26:52;37.90;1.00
9167;DHT22;4618;48.818;9.088;2023-06-24T14:29:18;38.40;1.00
9167;DHT22;4618;48.818;9.088;2023-06-24T14:31:43;38.30;1.00
9167;DHT22;4618;48.818;9.088;2023-06-24T14:34:09;37.50;1.00
9167;DHT22;4618;48.818;9.088;2023-06-24T14:36:35;37.90;1.00
9167;DHT22;4618;48.818;9.088;2023-06-24T14:39:00;37.70;1.00
9167;DHT22;4618;48.818;9.088;2023-06-24T14:41:26;37.80;1.00
9167;DHT22;4618;48.818;9.088;2023-06-24T14:43:51;38.00;1.00
9167;DHT22;4618;48.818;9.088;2023-06-24T14:46:17;38.30;1.00
9167;DHT22;4618;48.818;9.088;2023-06-24T14:48:42;38.40;1.00
9167;DHT22;4618;48.818;9.088;2023-06-24T14:51:08;38.60;1.00
9167;DHT22;4618;48.818;9.088;2023-06-24T14:53:34;38.70;1.00
9167;DHT22;4618;48.818;9.088;2023-06-24T14:55:59;38.60;1.00
9167;DHT22;4618;48.818;9.088;2023-06-24T14:58:25;37.60;1.00
9167;DHT22;4618;48.818;9.088;2023-06-24T15:00:51;37.40;1.00
9167;DHT22;4618;48.818;9.088;2023-06-24T15:03:16;37.90;1.00
9167;DHT22;4618;48.818;9.088;2023-06-24T15:05:42;38.40;1.00
9167;DHT22;4618;48.818;9.088;2023-06-24T15:08:07;38.20;1.00
9167;DHT22;4618;48.818;9.088;2023-06-24T15:10:33;38.60;1.00
9167;DHT22;4618;48.818;9.088;2023-06-24T15:12:58;38.40;1.00
9167;DHT22;4618;48.818;9.088;2023-06-24T15:15:24;37.90;1.00
9167;DHT22;4618;48.818;9.088;2023-06-24T15:17:49;37.50;1.00
9167;DHT22;4618;48.818;9.088;2023-06-24T15:20:15;37.60;1.00
9167;DHT22;4618;48.818;9.088;2023-06-24T15:22:41;38.40;1.00
9167;DHT22;4618;48.818;9.088;2023-06-24T15:25:07;38.20;1.00
9167;DHT22;4618;48.818;9.088;2023-06-24T15:27:33;37.70;1.00
9167;DHT22;4618;48.818;9.088;2023-06-24T15:29:59;37.30;1.00
9167;DHT22;4618;48.818;9.088;2023-06-24T15:32:24;37.50;1.00
9167;DHT22;4618;48.818;9.088;2023-06-24T15:34:50;37.60;1.00
9167;DHT22;4618;48.818;9.088;2023-06-24T15:37:15;37.80;1.00
9167;DHT22;4618;48.818;9.088;2023-06-24T15:39:41;36.70;1.00
9167;DHT22;4618;48.818;9.088;2023-06-24T15:42:07;36.30;1.00
9167;DHT22;4618;48.818;9.088;2023-06-24T15:44:33;35.80;1.00
9167;DHT22;4618;48.818;9.088;2023-06-24T15:46:58;35.80;1.00
9167;DHT22;4618;48.818;9.088;2023-06-24T15:49:24;36.20;1.00
9167;DHT22;4618;48.818;9.088;2023-06-24T15:51:50;36.40;1.00
9167;DHT22;4618;48.818;9.088;2023-06-24T15:54:15;36.80;1.00
9167;DHT22;4618;48.818;9.088;2023-06-24T15:56:41;36.90;1.00
9167;DHT22;4618;48.818;9.088;2023-06-24T15:59:06;36.60;1.00
9167;DHT22;4618;48.818;9.088;2023-06-24T16:01:32;36.50;1.00
9167;DHT22;4618;48.818;9.088;2023-06-24T16:03:57;36.60;1.00
9167;DHT22;4618;48.818;9.088;2023-06-24T16:06:23;36.40;1.00
9167;DHT22;4618;48.818;9.088;2023-06-24T16:08:49;36.00;1.00
9167;DHT22;4618;48.818;9.088;2023-06-24T16:11:14;36.30;1.00
9167;DHT22;4618;48.818;9.088;2023-06-24T16:13:40;36.80;1.00
9167;DHT22;4618;48.818;9.088;2023-06-24T16:16:06;36.80;1.00
9167;DHT22;4618;48.818;9.088;2023-06-24T16:18:31;36.60;1.00
9167;DHT22;4618;48.818;9.088;2023-06-24T16:20:57;36.20;1.00
9167;DHT22;4618;48.818;9.088;2023-06-24T16:23:22;36.00;1.00
9167;DHT22;4618;48.818;9.088;2023-06-24T16:25:48;35.90;1.00
9167;DHT22;4618;48.818;9.088;2023-06-24T16:28:16;36.00;1.00
9167;DHT22;4618;48.818;9.088;2023-06-24T16:30:42;36.10;1.00
9167;DHT22;4618;48.818;9.088;2023-06-24T16:33:08;36.00;1.00
9167;DHT22;4618;48.818;9.088;2023-06-24T16:35:33;36.30;1.00
9167;DHT22;4618;48.818;9.088;2023-06-24T16:37:59;35.90;1.00
9167;DHT22;4618;48.818;9.088;2023-06-24T16:40:24;36.10;1.00
9167;DHT22;4618;48.818;9.088;2023-06-24T16:42:50;36.30;1.00
9167;DHT22;4618;48.818;9.088;2023-06-24T16:45:15;36.40;1.00
9167;DHT22;4618;48.818;9.088;2023-06-24T16:47:41;36.70;1.00
9167;DHT22;4618;48.818;9.088;2023-06-24T16:50:07;36.30;1.00
9167;DHT22;4618;48.818;9.088;2023-06-24T16:52:32;35.60;1.00
9167;DHT22;4618;48.818;9.088;2023-06-24T16:54:58;35.60;1.00
9167;DHT22;4618;48.818;9.088;2023-06-24T16:57:25;35.50;1.00
9167;DHT22;4618;48.818;9.088;2023-06-24T16:59:51;35.20;1.00
9167;DHT22;4618;48.818;9.088;2023-06-24T17:02:16;34.80;1.00
9167;DHT22;4618;48.818;9.088;2023-06-24T17:04:42;34.70;1.00
9167;DHT22;4618;48.818;9.088;2023-06-24T17:07:07;34.80;1.00
9167;DHT22;4618;48.818;9.088;2023-06-24T17:09:33;34.90;1.00
9167;DHT22;4618;48.818;9.088;2023-06-24T17:11:59;34.80;1.00
9167;DHT22;4618;48.818;9.088;2023-06-24T17:14:24;34.40;1.00
9167;DHT22;4618;48.818;9.088;2023-06-24T17:16:50;34.10;1.00
9167;DHT22;4618;48.818;9.088;2023-06-24T17:19:16;34.20;1.00
9167;DHT22;4618;48.818;9.088;2023-06-24T17:21:42;34.30;1.00
9167;DHT22;4618;48.818;9.088;2023-06-24T17:24:07;34.60;1.00
9167;DHT22;4618;48.818;9.088;2023-06-24T17:26:33;34.60;1.00
9167;DHT22;4618;48.818;9.088;2023-06-24T17:28:58;34.40;1.00